< < Back
Terminal Aerodrome Forecast


Current Version              Previous Versions:   1  2  3  4  5  6  7  8  9  

Terminal Aerodrome Forecast

556
FTUS42 KJAX 240538
TAFGNV
TAF
KGNV 240538Z 2406/2506 VRB05KT P6SM FEW030 SCT250
     FM242100 12007KT P6SM VCTS SCT050CB BKN250
     FM250200 VRB03KT P6SM FEW040=

Latest METAR

926
SAUS70 KWBC 251000 RRC
MTRGNV
METAR KGNV 250953Z AUTO 00000KT 10SM CLR 22/20 A3004 RMK AO2 SLP169
T02170200


USA.gov is the U.S. government's official web portal to all federal, state and local government web resources and services.